createdAt,value
2019-04-28T00:03:37.450Z,60.50
2019-04-28T00:07:43.178Z,60.34
2019-04-28T00:11:48.945Z,60.65
2019-04-28T00:15:55.035Z,60.68
2019-04-28T00:20:02.377Z,60.29
2019-04-28T00:24:28.623Z,59.89
2019-04-28T00:28:34.440Z,60.14
2019-04-28T00:32:41.782Z,59.91
2019-04-28T00:36:51.107Z,59.73
2019-04-28T00:40:56.978Z,58.29
2019-04-28T00:45:02.734Z,58.85
2019-04-28T00:49:08.479Z,61.29
2019-04-28T00:53:14.268Z,61.65
2019-04-28T00:57:21.178Z,59.99
2019-04-28T01:01:28.613Z,60.79
2019-04-28T01:05:34.287Z,60.10
2019-04-28T01:09:41.601Z,61.10
2019-04-28T01:13:47.404Z,61.21
2019-04-28T01:18:03.603Z,62.03
2019-04-28T01:22:12.604Z,63.00
2019-04-28T01:26:20.017Z,64.05
2019-04-28T01:30:29.909Z,64.04
2019-04-28T01:34:35.575Z,63.69
2019-04-28T01:38:41.275Z,64.44
2019-04-28T01:42:46.933Z,64.19
2019-04-28T01:46:52.758Z,64.03
2019-04-28T01:50:59.826Z,64.27
2019-04-28T01:55:07.209Z,63.82
2019-04-28T01:59:12.878Z,62.95
2019-04-28T02:03:20.114Z,63.59
2019-04-28T02:07:26.164Z,64.28
2019-04-28T02:11:31.848Z,64.47
2019-04-28T02:15:37.616Z,63.43
2019-04-28T02:19:43.292Z,62.99
2019-04-28T02:23:51.445Z,61.82
2019-04-28T02:27:57.269Z,61.58
2019-04-28T02:32:03.639Z,61.48
2019-04-28T02:36:12.138Z,61.88
2019-04-28T02:40:16.779Z,61.67
2019-04-28T02:44:23.652Z,61.43
2019-04-28T02:48:31.049Z,60.69
2019-04-28T02:52:54.300Z,60.47
2019-04-28T02:57:01.314Z,60.81
2019-04-28T03:01:18.548Z,60.32
2019-04-28T03:05:14.646Z,60.24
2019-04-28T03:09:20.757Z,59.96
2019-04-28T03:13:26.555Z,60.04
2019-04-28T03:17:32.228Z,59.88
2019-04-28T03:21:38.030Z,60.21
2019-04-28T03:25:45.357Z,59.77
2019-04-28T03:30:01.559Z,60.49
2019-04-28T03:34:07.760Z,60.42
2019-04-28T03:38:13.440Z,60.33
2019-04-28T03:42:21.586Z,60.49
2019-04-28T03:46:30.475Z,60.69
2019-04-28T03:50:35.492Z,60.55
2019-04-28T03:54:41.737Z,60.26
2019-04-28T03:58:47.408Z,60.31
2019-04-28T04:02:54.061Z,60.74
2019-04-28T04:07:01.505Z,61.30
2019-04-28T04:11:10.792Z,60.98
2019-04-28T04:15:41.744Z,60.52
2019-04-28T04:19:50.160Z,60.71
2019-04-28T04:23:54.804Z,61.38
2019-04-28T04:28:03.861Z,60.96
2019-04-28T04:32:15.689Z,60.57
2019-04-28T04:36:16.460Z,60.33
2019-04-28T04:40:22.141Z,60.68
2019-04-28T04:44:27.852Z,60.73
2019-04-28T04:48:33.526Z,60.46
2019-04-28T04:52:40.317Z,60.51
2019-04-28T04:56:46.096Z,60.29
2019-04-28T05:01:02.358Z,60.79
2019-04-28T05:05:11.738Z,60.61
2019-04-28T05:09:17.114Z,60.05
2019-04-28T05:13:22.774Z,59.57
2019-04-28T05:17:30.129Z,59.08
2019-04-28T05:21:35.954Z,58.98
2019-04-28T05:25:43.279Z,58.59
2019-04-28T05:29:51.183Z,58.60
2019-04-28T05:33:56.317Z,58.79
2019-04-28T05:38:01.992Z,58.36
2019-04-28T05:42:09.722Z,57.00
2019-04-28T05:46:15.040Z,56.49
2019-04-28T05:50:22.361Z,55.64
2019-04-28T05:54:45.269Z,55.04
2019-04-28T05:58:52.630Z,54.70
2019-04-28T06:03:02.869Z,54.66
2019-04-28T06:07:10.211Z,54.15
2019-04-28T06:11:35.430Z,52.84
2019-04-28T06:15:41.190Z,51.87
2019-04-28T06:19:46.941Z,51.00
2019-04-28T06:23:52.846Z,51.33
2019-04-28T06:27:58.525Z,53.31
2019-04-28T06:32:04.469Z,54.25
2019-04-28T06:36:10.236Z,53.56
2019-04-28T06:40:16.148Z,51.03
2019-04-28T06:44:21.822Z,48.57
2019-04-28T06:48:27.818Z,50.12
2019-04-28T06:52:33.492Z,51.35
2019-04-28T06:56:39.176Z,51.33
2019-04-28T07:00:44.970Z,50.32
2019-04-28T07:05:01.200Z,47.32
2019-04-28T07:08:58.044Z,47.98
2019-04-28T07:13:03.728Z,47.32
2019-04-28T07:17:09.422Z,46.79
2019-04-28T07:21:14.948Z,46.99
2019-04-28T07:25:20.707Z,45.66
2019-04-28T07:29:26.395Z,46.84
2019-04-28T07:33:36.135Z,47.17
2019-04-28T07:37:39.663Z,47.72
2019-04-28T07:41:45.402Z,46.41
2019-04-28T07:45:51.170Z,50.32
2019-04-28T07:49:56.868Z,49.90
2019-04-28T07:54:06.903Z,51.84
2019-04-28T07:58:12.568Z,56.60
2019-04-28T08:02:18.504Z,59.15
2019-04-28T08:06:26.871Z,60.13
2019-04-28T08:10:31.577Z,58.85
2019-04-28T08:14:37.245Z,58.03
2019-04-28T08:18:43.010Z,55.73
2019-04-28T08:22:48.748Z,53.98
2019-04-28T08:26:54.582Z,52.61
2019-04-28T08:31:00.350Z,50.63
2019-04-28T08:35:09.472Z,47.57
2019-04-28T08:39:15.239Z,43.81
2019-04-28T08:43:20.904Z,44.78
2019-04-28T08:47:26.743Z,46.64
2019-04-28T08:51:32.789Z,46.81
2019-04-28T08:55:38.563Z,44.47
2019-04-28T08:59:44.671Z,44.16
2019-04-28T09:03:50.371Z,42.12
2019-04-28T09:07:56.094Z,43.04
2019-04-28T09:12:01.788Z,42.18
2019-04-28T09:16:07.610Z,39.76
2019-04-28T09:20:13.502Z,44.91
2019-04-28T09:24:19.172Z,42.40
2019-04-28T09:28:25.904Z,44.41
2019-04-28T09:32:31.600Z,44.44
2019-04-28T09:36:37.284Z,46.97
2019-04-28T09:40:43.032Z,43.84
2019-04-28T09:44:48.780Z,44.39
2019-04-28T09:48:54.428Z,40.50
2019-04-28T09:53:00.154Z,34.74
2019-04-28T09:57:05.871Z,32.73
2019-04-28T10:01:11.548Z,31.28
2019-04-28T10:05:17.320Z,29.26
2019-04-28T10:09:23.019Z,32.83
2019-04-28T10:13:28.754Z,31.62
2019-04-28T10:17:34.580Z,35.20
2019-04-28T10:21:40.268Z,39.11
2019-04-28T10:25:46.694Z,42.00
2019-04-28T10:29:52.388Z,41.19
2019-04-28T10:33:59.765Z,40.83
2019-04-28T10:38:05.777Z,41.89
2019-04-28T10:42:11.546Z,42.57
2019-04-28T10:46:17.397Z,42.59
2019-04-28T10:50:23.282Z,41.49
2019-04-28T10:54:28.988Z,41.85
2019-04-28T10:58:34.921Z,42.55
2019-04-28T11:02:42.268Z,41.90
2019-04-28T11:06:48.055Z,42.27
2019-04-28T11:10:55.113Z,41.74
2019-04-28T11:15:00.807Z,41.46
2019-04-28T11:19:06.714Z,43.09
2019-04-28T11:23:12.477Z,45.51
2019-04-28T11:27:18.547Z,49.49
2019-04-28T11:31:24.304Z,54.34
2019-04-28T11:35:31.795Z,57.02
2019-04-28T11:39:39.200Z,58.63
2019-04-28T11:43:44.997Z,60.67
2019-04-28T11:47:50.919Z,62.58
2019-04-28T11:51:57.572Z,61.73
2019-04-28T11:56:03.653Z,60.95
2019-04-28T12:00:14.585Z,60.41
2019-04-28T12:04:20.947Z,61.27
2019-04-28T12:08:26.667Z,62.20
2019-04-28T12:12:45.960Z,60.46
2019-04-28T12:16:54.467Z,60.36
2019-04-28T12:21:01.128Z,61.44
2019-04-28T12:25:09.459Z,60.74
2019-04-28T12:29:15.145Z,57.69
2019-04-28T12:33:20.878Z,56.74
2019-04-28T12:37:26.588Z,52.33
2019-04-28T12:41:32.280Z,45.40
2019-04-28T12:45:37.976Z,40.07
2019-04-28T12:49:54.467Z,34.40
2019-04-28T12:54:02.796Z,35.83
2019-04-28T12:58:08.510Z,38.38
2019-04-28T13:02:21.680Z,36.46
2019-04-28T13:06:27.354Z,35.90
2019-04-28T13:10:33.099Z,36.54
2019-04-28T13:14:38.791Z,35.81
2019-04-28T13:18:44.569Z,37.38
2019-04-28T13:22:50.329Z,38.15
2019-04-28T13:26:56.099Z,33.12
2019-04-28T13:31:01.833Z,30.13
2019-04-28T13:35:09.748Z,28.59
2019-04-28T13:39:17.079Z,28.72
2019-04-28T13:43:22.813Z,27.72
2019-04-28T13:47:28.568Z,25.61
2019-04-28T13:51:34.446Z,26.88
2019-04-28T13:55:46.784Z,27.19
2019-04-28T13:59:56.594Z,25.18
2019-04-28T14:04:06.349Z,27.52
2019-04-28T14:08:12.342Z,25.66
2019-04-28T14:12:18.046Z,25.78
2019-04-28T14:16:23.752Z,26.40
2019-04-28T14:20:29.453Z,27.96
2019-04-28T14:24:35.157Z,27.13
2019-04-28T14:28:40.862Z,26.75
2019-04-28T14:32:46.638Z,29.77
2019-04-28T14:36:53.292Z,32.26
2019-04-28T14:40:59.000Z,33.90
2019-04-28T14:45:07.406Z,35.06
2019-04-28T14:49:13.139Z,36.14
2019-04-28T14:53:18.795Z,33.68
2019-04-28T14:57:24.502Z,34.46
2019-04-28T15:01:40.481Z,35.45
2019-04-28T15:05:51.807Z,35.59
2019-04-28T15:10:01.891Z,34.69
2019-04-28T15:14:07.876Z,39.98
2019-04-28T15:18:13.663Z,40.34
2019-04-28T15:22:19.359Z,37.86
2019-04-28T15:26:25.063Z,36.60
2019-04-28T15:30:30.883Z,39.79
2019-04-28T15:34:36.717Z,38.62
2019-04-28T15:38:42.434Z,38.43
2019-04-28T15:42:49.166Z,40.08
2019-04-28T15:46:55.950Z,40.66
2019-04-28T15:51:01.630Z,39.75
2019-04-28T15:55:10.382Z,40.63
2019-04-28T15:59:16.072Z,38.94
2019-04-28T16:03:21.781Z,40.14
2019-04-28T16:07:27.553Z,37.82
2019-04-28T16:11:33.249Z,36.89
2019-04-28T16:15:38.957Z,38.43
2019-04-28T16:19:44.797Z,36.10
2019-04-28T16:23:50.515Z,36.91
2019-04-28T16:27:56.208Z,38.85
2019-04-28T16:32:02.028Z,41.12
2019-04-28T16:36:07.722Z,37.34
2019-04-28T16:40:13.954Z,39.15
2019-04-28T16:44:23.205Z,40.60
2019-04-28T16:48:29.129Z,39.18
2019-04-28T16:52:35.059Z,39.81
2019-04-28T16:56:40.591Z,39.52
2019-04-28T17:00:51.011Z,41.02
2019-04-28T17:04:56.926Z,41.18
2019-04-28T17:09:02.753Z,42.29
2019-04-28T17:13:10.450Z,41.12
2019-04-28T17:17:16.250Z,40.61
2019-04-28T17:21:22.203Z,40.28
2019-04-28T17:25:27.989Z,40.78
2019-04-28T17:29:33.721Z,41.97
2019-04-28T17:33:39.438Z,42.68
2019-04-28T17:37:45.261Z,42.52
2019-04-28T17:41:51.174Z,45.24
2019-04-28T17:45:56.963Z,45.60
2019-04-28T17:50:02.917Z,45.62
2019-04-28T17:54:08.955Z,45.36
2019-04-28T17:58:14.652Z,44.16
2019-04-28T18:02:34.054Z,43.16
2019-04-28T18:06:41.383Z,43.96
2019-04-28T18:10:47.099Z,43.56
2019-04-28T18:14:54.418Z,44.43
2019-04-28T18:19:01.755Z,44.48
2019-04-28T18:23:07.527Z,43.83
2019-04-28T18:27:13.219Z,46.29
2019-04-28T18:31:23.552Z,45.47
2019-04-28T18:35:39.997Z,46.44
2019-04-28T18:39:53.381Z,47.65
2019-04-28T18:44:06.494Z,46.77
2019-04-28T18:48:12.234Z,49.19
2019-04-28T18:52:17.947Z,48.53
2019-04-28T18:56:23.617Z,46.44
2019-04-28T19:00:33.717Z,49.98
2019-04-28T19:04:39.422Z,47.88
2019-04-28T19:08:55.906Z,47.93
2019-04-28T19:13:19.579Z,49.06
2019-04-28T19:17:28.058Z,47.17
2019-04-28T19:21:33.781Z,49.93
2019-04-28T19:25:39.475Z,46.78
2019-04-28T19:29:45.315Z,46.81
2019-04-28T19:33:51.012Z,48.24
2019-04-28T19:37:56.766Z,49.94
2019-04-28T19:42:02.462Z,49.77
2019-04-28T19:46:09.916Z,46.43
2019-04-28T19:50:15.830Z,46.83
2019-04-28T19:54:23.170Z,47.32
2019-04-28T19:58:39.456Z,50.49
2019-04-28T20:02:45.152Z,51.58
2019-04-28T20:06:50.863Z,49.83
2019-04-28T20:10:56.584Z,49.01
2019-04-28T20:15:02.451Z,49.37
2019-04-28T20:19:09.318Z,46.96
2019-04-28T20:23:15.074Z,47.75
2019-04-28T20:27:20.838Z,47.10
2019-04-28T20:31:26.537Z,46.69
2019-04-28T20:35:33.871Z,47.71
2019-04-28T20:39:39.639Z,48.13
2019-04-28T20:43:45.384Z,49.07
2019-04-28T20:47:51.108Z,48.04
2019-04-28T20:51:56.820Z,48.51
2019-04-28T20:56:02.540Z,48.97
2019-04-28T21:00:09.065Z,50.21
2019-04-28T21:04:16.377Z,49.86
2019-04-28T21:08:22.107Z,48.85
2019-04-28T21:12:27.816Z,48.01
2019-04-28T21:16:33.497Z,51.41
2019-04-28T21:20:39.229Z,50.44
2019-04-28T21:24:44.938Z,48.80
2019-04-28T21:28:50.637Z,49.57
2019-04-28T21:32:56.427Z,48.78
2019-04-28T21:37:02.153Z,50.58
2019-04-28T21:41:07.927Z,48.61
2019-04-28T21:45:31.543Z,48.24
2019-04-28T21:49:38.904Z,49.11
2019-04-28T21:53:44.693Z,49.51
2019-04-28T21:57:50.355Z,51.31
2019-04-28T22:01:56.335Z,52.58
2019-04-28T22:06:02.139Z,49.55
2019-04-28T22:10:09.801Z,51.52
2019-04-28T22:14:17.171Z,49.84
2019-04-28T22:18:22.949Z,52.08
2019-04-28T22:22:28.824Z,50.37
2019-04-28T22:26:50.987Z,49.34
2019-04-28T22:30:57.741Z,51.39
2019-04-28T22:35:03.508Z,52.19
2019-04-28T22:39:09.238Z,53.91
2019-04-28T22:43:16.001Z,51.57
2019-04-28T22:47:21.702Z,52.06
2019-04-28T22:51:27.451Z,53.23
2019-04-28T22:55:34.889Z,51.26
2019-04-28T22:59:42.198Z,51.75
2019-04-28T23:04:05.835Z,50.88
2019-04-28T23:08:11.627Z,51.51
2019-04-28T23:12:17.313Z,51.41
2019-04-28T23:16:23.135Z,51.31
2019-04-28T23:20:30.437Z,51.29
2019-04-28T23:24:36.122Z,53.06
2019-04-28T23:28:41.868Z,53.25
2019-04-28T23:32:47.552Z,53.40
2019-04-28T23:36:53.261Z,52.84
2019-04-28T23:41:10.821Z,53.48
2019-04-28T23:45:16.527Z,51.75
2019-04-28T23:49:22.222Z,52.52
2019-04-28T23:53:45.391Z,54.96
2019-04-28T23:57:51.101Z,52.06
